createdAt,value
2023-03-29T00:00:51.102Z,63.50
2023-03-29T00:03:54.857Z,62.37
2023-03-29T00:07:04.620Z,61.80
2023-03-29T00:10:11.247Z,61.29
2023-03-29T00:13:14.701Z,62.21
2023-03-29T00:16:19.875Z,61.71
2023-03-29T00:19:23.442Z,61.53
2023-03-29T00:22:27.535Z,62.08
2023-03-29T00:25:31.053Z,62.33
2023-03-29T00:28:34.513Z,62.51
2023-03-29T00:31:39.311Z,63.44
2023-03-29T00:34:46.225Z,64.13
2023-03-29T00:37:50.969Z,63.64
2023-03-29T00:40:54.568Z,63.26
2023-03-29T00:44:00.903Z,62.80
2023-03-29T00:47:07.308Z,62.33
2023-03-29T00:50:17.369Z,62.70
2023-03-29T00:53:26.492Z,62.21
2023-03-29T00:56:35.227Z,63.43
2023-03-29T00:59:41.316Z,63.12
2023-03-29T01:02:51.139Z,61.69
2023-03-29T01:06:00.446Z,61.44
2023-03-29T01:09:10.408Z,61.99
2023-03-29T01:12:18.598Z,62.67
2023-03-29T01:15:28.367Z,63.06
2023-03-29T01:18:34.203Z,64.00
2023-03-29T01:21:45.284Z,64.08
2023-03-29T01:25:00.059Z,64.88
2023-03-29T01:28:10.138Z,64.64
2023-03-29T01:31:18.945Z,64.33
2023-03-29T01:34:28.665Z,64.50
2023-03-29T01:37:37.782Z,64.57
2023-03-29T01:40:41.628Z,64.70
2023-03-29T01:43:53.441Z,64.57
2023-03-29T01:47:06.660Z,64.04
2023-03-29T01:50:17.297Z,64.29
2023-03-29T01:53:27.529Z,64.63
2023-03-29T01:56:36.911Z,64.97
2023-03-29T01:59:45.965Z,64.59
2023-03-29T02:02:51.595Z,64.63
2023-03-29T02:05:58.290Z,64.86
2023-03-29T02:09:04.980Z,64.01
2023-03-29T02:12:10.772Z,65.12
2023-03-29T02:15:19.159Z,65.14
2023-03-29T02:18:24.877Z,65.51
2023-03-29T02:21:34.086Z,65.48
2023-03-29T02:24:40.957Z,66.54
2023-03-29T02:27:45.555Z,66.17
2023-03-29T02:30:56.740Z,66.26
2023-03-29T02:34:03.783Z,66.49
2023-03-29T02:37:11.838Z,66.74
2023-03-29T02:40:17.054Z,66.58
2023-03-29T02:46:29.434Z,66.80
2023-03-29T02:49:33.738Z,67.18
2023-03-29T02:52:41.269Z,67.13
2023-03-29T02:55:46.993Z,67.45
2023-03-29T02:58:50.435Z,67.05
2023-03-29T03:01:55.336Z,68.20
2023-03-29T03:04:59.504Z,68.10
2023-03-29T03:08:04.682Z,68.55
2023-03-29T03:11:08.599Z,69.03
2023-03-29T03:14:12.558Z,69.33
2023-03-29T03:17:18.910Z,69.67
2023-03-29T03:20:24.297Z,70.12
2023-03-29T03:23:28.731Z,70.80
2023-03-29T03:26:32.798Z,71.26
2023-03-29T03:29:38.595Z,71.61
2023-03-29T03:33:03.958Z,71.88
2023-03-29T03:36:42.808Z,72.17
2023-03-29T03:39:48.584Z,72.11
2023-03-29T03:42:52.333Z,71.56
2023-03-29T03:45:56.522Z,71.54
2023-03-29T03:49:03.023Z,71.36
2023-03-29T03:52:09.749Z,70.90
2023-03-29T03:55:13.191Z,71.64
2023-03-29T03:58:28.685Z,71.95
2023-03-29T04:01:33.602Z,71.70
2023-03-29T04:04:50.447Z,71.56
2023-03-29T04:07:56.223Z,71.32
2023-03-29T04:11:18.242Z,71.62
2023-03-29T04:14:22.438Z,71.44
2023-03-29T04:17:46.164Z,71.49
2023-03-29T04:20:58.465Z,70.91
2023-03-29T04:24:03.205Z,71.19
2023-03-29T04:27:09.579Z,70.68
2023-03-29T04:30:14.444Z,70.76
2023-03-29T04:33:46.872Z,71.29
2023-03-29T04:36:52.737Z,71.10
2023-03-29T04:40:00.526Z,70.77
2023-03-29T04:43:07.233Z,71.46
2023-03-29T04:46:11.122Z,71.10
2023-03-29T04:49:40.652Z,72.35
2023-03-29T04:52:50.955Z,72.71
2023-03-29T04:55:55.679Z,72.09
2023-03-29T04:59:19.068Z,71.68
2023-03-29T05:02:22.549Z,71.88
2023-03-29T05:05:27.390Z,71.48
2023-03-29T05:08:33.067Z,71.33
2023-03-29T05:11:45.854Z,69.34
2023-03-29T05:14:50.057Z,68.99
2023-03-29T05:17:54.601Z,68.97
2023-03-29T05:20:58.889Z,69.84
2023-03-29T05:24:06.373Z,71.00
2023-03-29T05:27:36.282Z,71.45
2023-03-29T05:30:44.753Z,70.13
2023-03-29T05:34:07.112Z,70.45
2023-03-29T05:37:14.119Z,70.90
2023-03-29T05:40:27.539Z,68.96
2023-03-29T05:44:03.738Z,68.64
2023-03-29T05:47:08.245Z,67.87
2023-03-29T05:50:12.092Z,66.53
2023-03-29T05:53:15.954Z,67.79
2023-03-29T05:56:22.557Z,66.74
2023-03-29T05:59:28.460Z,66.17
2023-03-29T06:02:33.573Z,65.54
2023-03-29T06:05:37.327Z,65.31
2023-03-29T06:08:41.888Z,66.01
2023-03-29T06:11:56.675Z,66.36
2023-03-29T06:15:08.618Z,65.94
2023-03-29T06:18:23.475Z,65.98
2023-03-29T06:21:28.642Z,66.28
2023-03-29T06:24:32.473Z,65.42
2023-03-29T06:27:43.172Z,65.41
2023-03-29T06:30:47.803Z,64.61
2023-03-29T06:33:51.479Z,63.98
2023-03-29T06:37:05.969Z,63.51
2023-03-29T06:40:10.947Z,63.36
2023-03-29T06:43:22.875Z,62.79
2023-03-29T06:46:35.370Z,62.35
2023-03-29T06:49:42.736Z,61.83
2023-03-29T06:53:04.263Z,60.92
2023-03-29T06:56:09.823Z,59.79
2023-03-29T06:59:21.763Z,58.58
2023-03-29T07:02:31.954Z,58.17
2023-03-29T07:05:45.048Z,57.98
2023-03-29T07:08:52.640Z,56.16
2023-03-29T07:12:31.161Z,55.47
2023-03-29T07:15:38.743Z,55.37
2023-03-29T07:18:52.962Z,53.85
2023-03-29T07:22:16.542Z,53.54
2023-03-29T07:25:30.123Z,53.92
2023-03-29T07:28:35.603Z,53.09
2023-03-29T07:31:41.144Z,51.58
2023-03-29T07:35:05.946Z,50.74
2023-03-29T07:38:11.723Z,50.70
2023-03-29T07:41:21.289Z,50.54
2023-03-29T07:44:27.257Z,50.19
2023-03-29T07:47:33.094Z,49.40
2023-03-29T07:50:36.875Z,48.85
2023-03-29T07:53:41.508Z,48.75
2023-03-29T07:57:00.014Z,48.53
2023-03-29T08:00:30.019Z,47.32
2023-03-29T08:04:01.135Z,46.73
2023-03-29T08:07:24.923Z,46.50
2023-03-29T08:10:40.505Z,46.44
2023-03-29T08:14:09.179Z,46.57
2023-03-29T08:17:33.059Z,45.49
2023-03-29T08:20:38.157Z,46.07
2023-03-29T08:23:41.586Z,44.66
2023-03-29T08:26:50.517Z,45.03
2023-03-29T08:29:56.447Z,45.67
2023-03-29T08:33:00.116Z,45.06
2023-03-29T08:36:06.262Z,44.91
2023-03-29T08:39:13.401Z,45.17
2023-03-29T08:42:38.889Z,44.62
2023-03-29T08:45:54.708Z,45.62
2023-03-29T08:49:03.807Z,45.07
2023-03-29T08:52:23.774Z,44.34
2023-03-29T08:55:33.417Z,44.14
2023-03-29T08:58:58.693Z,44.65
2023-03-29T09:02:17.997Z,43.62
2023-03-29T09:05:31.382Z,42.46
2023-03-29T09:08:59.015Z,42.03
2023-03-29T09:12:16.275Z,40.57
2023-03-29T09:15:28.915Z,41.08
2023-03-29T09:19:08.122Z,40.59
2023-03-29T09:22:21.926Z,40.36
2023-03-29T09:25:38.350Z,40.21
2023-03-29T09:29:02.969Z,40.21
2023-03-29T09:32:17.051Z,39.24
2023-03-29T09:35:29.076Z,38.64
2023-03-29T09:38:41.619Z,38.41
2023-03-29T09:41:52.616Z,39.20
2023-03-29T09:45:02.123Z,39.15
2023-03-29T09:48:15.957Z,38.65
2023-03-29T09:51:28.288Z,39.17
2023-03-29T09:54:32.753Z,38.33
2023-03-29T09:58:18.422Z,37.87
2023-03-29T10:01:37.532Z,39.25
2023-03-29T10:04:44.652Z,37.59
2023-03-29T10:07:52.693Z,37.96
2023-03-29T10:10:58.937Z,37.55
2023-03-29T10:14:06.687Z,37.96
2023-03-29T10:17:17.174Z,38.01
2023-03-29T10:20:21.727Z,37.39
2023-03-29T10:23:25.205Z,36.80
2023-03-29T10:26:33.034Z,37.54
2023-03-29T10:29:41.272Z,36.70
2023-03-29T10:32:45.033Z,36.15
2023-03-29T10:35:49.599Z,36.71
2023-03-29T10:38:55.872Z,36.19
2023-03-29T10:42:01.410Z,37.85
2023-03-29T10:45:20.747Z,36.71
2023-03-29T10:48:26.890Z,36.68
2023-03-29T10:51:31.366Z,36.91
2023-03-29T10:54:34.884Z,37.08
2023-03-29T10:57:46.592Z,35.39
2023-03-29T11:00:56.334Z,35.27
2023-03-29T11:04:13.578Z,34.92
2023-03-29T11:07:29.546Z,36.50
2023-03-29T11:10:45.617Z,35.93
2023-03-29T11:13:59.761Z,34.87
2023-03-29T11:17:21.703Z,35.42
2023-03-29T11:20:35.565Z,35.50
2023-03-29T11:23:49.805Z,35.60
2023-03-29T11:27:07.308Z,35.81
2023-03-29T11:30:19.125Z,34.71
2023-03-29T11:33:38.834Z,36.17
2023-03-29T11:36:52.864Z,35.15
2023-03-29T11:40:16.195Z,34.89
2023-03-29T11:43:27.663Z,34.97
2023-03-29T11:46:37.922Z,35.13
2023-03-29T11:49:51.821Z,34.76
2023-03-29T11:53:00.726Z,34.29
2023-03-29T11:56:13.318Z,34.90
2023-03-29T11:59:24.073Z,34.68
2023-03-29T12:02:33.851Z,35.30
2023-03-29T12:05:45.578Z,35.78
2023-03-29T12:08:54.202Z,34.83
2023-03-29T12:12:07.857Z,35.27
2023-03-29T12:15:20.385Z,35.03
2023-03-29T12:18:29.118Z,35.84
2023-03-29T12:21:37.994Z,34.94
2023-03-29T12:24:47.164Z,36.35
2023-03-29T12:28:01.553Z,34.52
2023-03-29T12:31:17.980Z,34.30
2023-03-29T12:34:52.010Z,35.58
2023-03-29T12:38:21.681Z,34.01
2023-03-29T12:41:53.434Z,34.35
2023-03-29T12:45:40.197Z,32.66
2023-03-29T12:48:45.830Z,33.60
2023-03-29T12:51:50.628Z,33.12
2023-03-29T12:54:57.187Z,33.86
2023-03-29T12:58:06.732Z,33.26
2023-03-29T13:01:22.851Z,33.31
2023-03-29T13:04:38.906Z,34.08
2023-03-29T13:07:48.288Z,33.88
2023-03-29T13:10:57.890Z,34.20
2023-03-29T13:14:13.857Z,34.82
2023-03-29T13:17:35.569Z,33.57
2023-03-29T13:20:47.384Z,34.39
2023-03-29T13:24:05.674Z,32.71
2023-03-29T13:27:19.266Z,34.29
2023-03-29T13:30:28.997Z,34.22
2023-03-29T13:33:48.495Z,33.55
2023-03-29T13:37:03.896Z,34.30
2023-03-29T13:40:26.725Z,35.01
2023-03-29T13:43:53.138Z,34.25
2023-03-29T13:47:06.030Z,34.70
2023-03-29T13:50:18.984Z,34.81
2023-03-29T13:53:29.173Z,34.40
2023-03-29T13:56:39.925Z,34.41
2023-03-29T13:59:52.993Z,33.92
2023-03-29T14:02:59.290Z,33.73
2023-03-29T14:06:04.855Z,35.09
2023-03-29T14:09:10.745Z,34.39
2023-03-29T14:12:15.908Z,34.00
2023-03-29T14:15:25.019Z,33.95
2023-03-29T14:18:33.615Z,34.85
2023-03-29T14:21:37.002Z,33.92
2023-03-29T14:24:42.562Z,34.27
2023-03-29T14:27:46.850Z,34.58
2023-03-29T14:30:52.909Z,34.08
2023-03-29T14:33:58.000Z,34.75
2023-03-29T14:37:01.577Z,35.48
2023-03-29T14:40:09.035Z,35.27
2023-03-29T14:43:18.810Z,34.82
2023-03-29T14:46:24.163Z,35.33
2023-03-29T14:49:28.380Z,36.17
2023-03-29T14:52:36.015Z,35.44
2023-03-29T14:55:40.755Z,35.95
2023-03-29T14:58:47.831Z,35.49
2023-03-29T15:01:53.661Z,35.25
2023-03-29T15:04:59.799Z,35.31
2023-03-29T15:08:04.326Z,35.96
2023-03-29T15:11:15.636Z,37.06
2023-03-29T15:14:21.864Z,36.39
2023-03-29T15:17:43.133Z,37.14
2023-03-29T15:20:53.564Z,37.00
2023-03-29T15:23:59.040Z,37.64
2023-03-29T15:27:05.774Z,37.12
2023-03-29T15:30:16.813Z,38.04
2023-03-29T15:33:26.103Z,38.15
2023-03-29T15:36:29.545Z,38.36
2023-03-29T15:39:33.842Z,38.53
2023-03-29T15:42:37.580Z,38.50
2023-03-29T15:45:41.434Z,37.90
2023-03-29T15:48:49.515Z,38.75
2023-03-29T15:51:56.160Z,38.52
2023-03-29T15:54:59.644Z,39.30
2023-03-29T15:58:03.233Z,40.58
2023-03-29T16:01:13.757Z,40.46
2023-03-29T16:04:20.958Z,40.64
2023-03-29T16:07:24.332Z,41.25
2023-03-29T16:10:27.952Z,41.41
2023-03-29T16:13:33.846Z,40.75
2023-03-29T16:16:37.360Z,41.66
2023-03-29T16:19:44.756Z,41.20
2023-03-29T16:22:49.002Z,40.60
2023-03-29T16:25:52.600Z,40.98
2023-03-29T16:28:56.188Z,41.61
2023-03-29T16:32:00.174Z,41.82
2023-03-29T16:35:05.211Z,42.09
2023-03-29T16:38:09.411Z,41.85
2023-03-29T16:41:16.354Z,42.02
2023-03-29T16:44:24.760Z,42.24
2023-03-29T16:47:30.482Z,42.02
2023-03-29T16:50:35.209Z,41.47
2023-03-29T16:53:39.096Z,42.25
2023-03-29T16:56:42.589Z,41.58
2023-03-29T16:59:47.749Z,42.84
2023-03-29T17:02:51.128Z,42.66
2023-03-29T17:05:57.289Z,42.20
2023-03-29T17:09:01.180Z,42.40
2023-03-29T17:12:04.610Z,43.23
2023-03-29T17:15:10.754Z,44.34
2023-03-29T17:18:14.868Z,43.99
2023-03-29T17:21:19.794Z,44.61
2023-03-29T17:24:23.454Z,44.15
2023-03-29T17:27:26.771Z,45.25
2023-03-29T17:30:30.599Z,45.87
2023-03-29T17:33:36.125Z,46.75
2023-03-29T17:36:41.388Z,47.89
2023-03-29T17:39:46.195Z,48.19
2023-03-29T17:42:52.151Z,48.34
2023-03-29T17:45:56.104Z,45.51
2023-03-29T17:49:01.167Z,48.14
2023-03-29T17:52:07.005Z,47.56
2023-03-29T17:55:13.961Z,47.80
2023-03-29T17:58:17.538Z,48.44
2023-03-29T18:01:21.498Z,48.98
2023-03-29T18:04:25.146Z,48.56
2023-03-29T18:07:30.295Z,49.19
2023-03-29T18:10:33.801Z,51.45
2023-03-29T18:13:37.196Z,51.65
2023-03-29T18:16:41.613Z,50.60
2023-03-29T18:19:45.260Z,51.86
2023-03-29T18:22:50.037Z,52.22
2023-03-29T18:25:53.417Z,51.45
2023-03-29T18:28:56.852Z,51.98
2023-03-29T18:32:03.122Z,52.50
2023-03-29T18:35:07.454Z,52.39
2023-03-29T18:38:12.213Z,52.82
2023-03-29T18:41:15.946Z,53.13
2023-03-29T18:44:20.577Z,53.22
2023-03-29T18:47:24.194Z,54.67
2023-03-29T18:50:27.802Z,55.68
2023-03-29T18:53:32.605Z,57.25
2023-03-29T18:56:36.656Z,58.00
2023-03-29T18:59:39.981Z,57.35
2023-03-29T19:02:43.632Z,57.56
2023-03-29T19:05:52.851Z,57.23
2023-03-29T19:08:58.512Z,56.66
2023-03-29T19:12:02.635Z,56.86
2023-03-29T19:15:07.189Z,57.64
2023-03-29T19:18:12.084Z,56.83
2023-03-29T19:21:15.532Z,56.50
2023-03-29T19:24:21.061Z,55.97
2023-03-29T19:27:24.449Z,56.07
2023-03-29T19:30:28.765Z,56.71
2023-03-29T19:33:33.391Z,56.57
2023-03-29T19:36:36.998Z,56.47
2023-03-29T19:39:42.381Z,55.95
2023-03-29T19:42:47.597Z,56.93
2023-03-29T19:45:52.631Z,57.31
2023-03-29T19:48:56.731Z,56.81
2023-03-29T19:52:00.191Z,56.06
2023-03-29T19:55:06.641Z,55.92
2023-03-29T19:58:13.661Z,56.27
2023-03-29T20:01:23.172Z,56.47
2023-03-29T20:04:28.803Z,56.49
2023-03-29T20:07:32.333Z,56.38
2023-03-29T20:10:40.114Z,56.95
2023-03-29T20:13:45.753Z,56.94
2023-03-29T20:16:50.729Z,57.04
2023-03-29T20:19:55.597Z,56.69
2023-03-29T20:23:04.562Z,56.91
2023-03-29T20:26:13.347Z,57.01
2023-03-29T20:29:16.884Z,56.97
2023-03-29T20:32:20.835Z,57.36
2023-03-29T20:35:24.478Z,57.38
2023-03-29T20:38:27.950Z,57.27
2023-03-29T20:41:38.560Z,57.60
2023-03-29T20:44:42.282Z,57.49
2023-03-29T20:47:50.430Z,58.21
2023-03-29T20:50:54.322Z,57.46
2023-03-29T20:54:02.650Z,56.91
2023-03-29T20:57:08.130Z,57.08
2023-03-29T21:00:13.015Z,57.23
2023-03-29T21:03:17.065Z,57.40
2023-03-29T21:06:20.996Z,56.83
2023-03-29T21:09:25.662Z,56.96
2023-03-29T21:12:30.886Z,57.61
2023-03-29T21:15:34.369Z,58.08
2023-03-29T21:18:39.040Z,57.45
2023-03-29T21:21:43.025Z,56.97
2023-03-29T21:24:47.254Z,57.97
2023-03-29T21:27:52.533Z,57.65
2023-03-29T21:30:56.572Z,58.11
2023-03-29T21:34:01.575Z,58.27
2023-03-29T21:37:05.154Z,57.62
2023-03-29T21:40:10.868Z,58.24
2023-03-29T21:43:16.160Z,57.54
2023-03-29T21:46:19.695Z,57.21
2023-03-29T21:49:25.494Z,57.42
2023-03-29T21:52:29.428Z,57.54
2023-03-29T21:55:37.858Z,57.65
2023-03-29T21:58:43.765Z,57.54
2023-03-29T22:01:47.581Z,57.67
2023-03-29T22:04:51.041Z,57.84
2023-03-29T22:07:54.622Z,57.51
2023-03-29T22:10:58.663Z,57.84
2023-03-29T22:14:04.199Z,57.18
2023-03-29T22:17:08.050Z,58.27
2023-03-29T22:20:14.097Z,58.84
2023-03-29T22:23:17.681Z,58.00
2023-03-29T22:26:23.407Z,58.39
2023-03-29T22:29:28.422Z,57.96
2023-03-29T22:32:32.399Z,58.24
2023-03-29T22:35:36.170Z,58.50
2023-03-29T22:38:40.554Z,58.08
2023-03-29T22:41:43.942Z,58.36
2023-03-29T22:44:48.807Z,58.77
2023-03-29T22:47:52.389Z,58.38
2023-03-29T22:50:55.923Z,58.88
2023-03-29T22:53:59.555Z,59.25
2023-03-29T22:57:03.274Z,59.17
2023-03-29T23:00:10.537Z,58.95
2023-03-29T23:03:13.883Z,59.06
2023-03-29T23:06:17.232Z,59.26
2023-03-29T23:09:21.156Z,59.10
2023-03-29T23:12:25.462Z,60.07
2023-03-29T23:15:32.297Z,59.75
2023-03-29T23:18:37.721Z,59.58
2023-03-29T23:21:42.404Z,60.35
2023-03-29T23:24:47.440Z,60.80
2023-03-29T23:27:51.065Z,61.02
2023-03-29T23:31:02.813Z,61.35
2023-03-29T23:34:06.838Z,61.36
2023-03-29T23:37:10.286Z,61.37
2023-03-29T23:40:15.673Z,61.44
2023-03-29T23:43:20.207Z,61.31
2023-03-29T23:46:26.158Z,61.20
2023-03-29T23:49:30.192Z,62.23
2023-03-29T23:52:35.779Z,61.74
2023-03-29T23:55:39.313Z,61.56
2023-03-29T23:58:42.762Z,62.02
